Time,TemperatureF,DewpointF,PressureIn,WindDirection,WindDirectionDegrees,WindSpeedMPH,WindSpeedGustMPH,Humidity,HourlyPrecipIn,Conditions,Clouds,dailyrainin,SolarRadiationWatts/m^2,SoftwareType,DateUTC
2013-06-25 05:43:00,67.0,65.0,30.03,West,277,0.0,0.0,94,0.00,,,0.17,0.000000,,2013-06-25 09:43:00,
2013-06-25 05:52:00,67.0,65.0,30.03,West,277,0.0,0.0,94,0.00,,,0.17,0.000000,,2013-06-25 09:52:00,
2013-06-25 06:01:00,67.0,65.0,30.03,West,277,0.0,0.0,93,0.00,,,0.17,7.000000,,2013-06-25 10:01:00,
2013-06-25 06:33:00,68.0,66.0,30.03,West,277,0.0,0.0,94,0.00,,,0.17,35.000000,,2013-06-25 10:33:00,
2013-06-25 06:43:00,68.0,66.0,30.03,West,277,0.0,0.0,92,0.00,,,0.17,63.000000,,2013-06-25 10:43:00,
2013-06-25 06:52:00,68.0,66.0,30.03,West,277,0.0,0.0,92,0.00,,,0.17,63.000000,,2013-06-25 10:52:00,
2013-06-25 07:02:00,69.0,66.0,30.03,West,278,0.0,0.0,91,0.00,,,0.17,100.000000,,2013-06-25 11:02:00,
2013-06-25 07:12:00,70.0,67.0,30.03,West,278,0.0,0.0,90,0.00,,,0.17,135.000000,,2013-06-25 11:12:00,
2013-06-25 07:34:00,71.0,68.0,30.03,West,278,0.0,0.0,90,0.00,,,0.17,172.000000,,2013-06-25 11:34:00,
2013-06-25 07:43:00,71.0,67.0,30.03,West,278,0.0,0.0,88,0.00,,,0.17,220.000000,,2013-06-25 11:43:00,
2013-06-25 08:02:00,72.0,69.0,30.02,West,278,0.0,0.0,90,0.00,,,0.17,260.000000,,2013-06-25 12:02:00,
2013-06-25 08:33:00,74.0,71.0,30.02,WSW,254,0.0,0.0,90,0.00,,,0.17,339.000000,,2013-06-25 12:33:00,
2013-06-25 08:43:00,75.0,70.0,30.02,WSW,254,0.0,0.0,85,0.00,,,0.17,403.000000,,2013-06-25 12:43:00,
2013-06-25 08:55:00,75.0,70.0,30.02,WSW,254,0.0,0.0,85,0.00,,,0.17,403.000000,,2013-06-25 12:55:00,
2013-06-25 09:22:00,77.0,71.0,30.03,NW,321,0.0,0.0,83,0.00,,,0.17,485.000000,,2013-06-25 13:22:00,
2013-06-25 09:34:00,78.0,72.0,30.02,South,172,0.0,0.0,82,0.00,,,0.17,533.000000,,2013-06-25 13:34:00,
2013-06-25 09:42:00,79.0,74.0,30.02,South,176,0.0,0.0,84,0.00,,,0.17,575.000000,,2013-06-25 13:42:00,
2013-06-25 10:02:00,80.0,74.0,30.02,South,181,0.0,0.0,82,0.00,,,0.17,615.000000,,2013-06-25 14:02:00,
2013-06-25 10:34:00,82.0,73.0,30.02,SSE,157,0.0,0.0,75,0.00,,,0.17,675.000000,,2013-06-25 14:34:00,
2013-06-25 10:53:00,83.0,73.0,30.02,ENE,63,0.0,1.0,73,0.00,,,0.17,710.000000,,2013-06-25 14:53:00,
2013-06-25 11:02:00,83.0,74.0,30.02,South,183,0.0,1.0,74,0.00,,,0.17,749.000000,,2013-06-25 15:02:00,
2013-06-25 11:22:00,84.0,73.0,30.02,SW,221,0.0,1.0,69,0.00,,,0.17,759.000000,,2013-06-25 15:22:00,
2013-06-25 11:53:00,84.0,75.0,30.02,SSE,150,0.0,0.0,74,0.00,,,0.17,775.000000,,2013-06-25 15:53:00,
2013-06-25 12:35:00,85.0,72.0,30.01,SE,126,0.0,2.0,65,0.00,,,0.17,798.000000,,2013-06-25 16:35:00,
2013-06-25 12:44:00,86.0,74.0,30.00,SE,138,0.0,1.0,68,0.00,,,0.17,791.000000,,2013-06-25 16:44:00,
2013-06-25 12:52:00,86.0,74.0,30.00,SE,138,0.0,1.0,68,0.00,,,0.17,791.000000,,2013-06-25 16:52:00,
2013-06-25 13:34:00,87.0,73.0,29.98,North,355,0.0,2.0,63,0.00,,,0.17,817.000000,,2013-06-25 17:34:00,
2013-06-25 14:12:00,85.0,73.0,29.97,SE,140,0.0,3.0,67,0.00,,,0.17,218.000000,,2013-06-25 18:12:00,
2013-06-25 16:33:00,86.0,71.0,29.90,SE,142,0.0,4.0,62,0.00,,,0.17,684.000000,,2013-06-25 20:33:00,
2013-06-25 17:34:00,82.0,71.0,29.89,North,355,0.0,3.0,70,0.00,,,0.17,100.000000,,2013-06-25 21:34:00,
2013-06-25 17:43:00,82.0,72.0,29.89,SE,126,0.0,2.0,71,0.00,,,0.17,139.000000,,2013-06-25 21:43:00,
2013-06-25 17:53:00,82.0,72.0,29.89,SE,126,0.0,2.0,71,0.00,,,0.17,139.000000,,2013-06-25 21:53:00,
2013-06-25 18:01:00,81.0,71.0,29.89,NNE,17,0.0,5.0,72,0.00,,,0.17,162.000000,,2013-06-25 22:01:00,
2013-06-25 18:22:00,81.0,71.0,29.89,NE,54,0.0,4.0,72,0.00,,,0.17,95.000000,,2013-06-25 22:22:00,
2013-06-25 18:34:00,81.0,71.0,29.89,ENE,69,0.0,3.0,71,0.00,,,0.17,93.000000,,2013-06-25 22:34:00,
2013-06-25 18:42:00,80.0,70.0,29.88,West,279,0.0,3.0,72,0.00,,,0.17,116.000000,,2013-06-25 22:42:00,
2013-06-25 18:52:00,80.0,70.0,29.88,West,279,0.0,3.0,72,0.00,,,0.17,116.000000,,2013-06-25 22:52:00,
2013-06-25 19:01:00,80.0,71.0,29.88,ENE,63,0.0,1.0,74,0.00,,,0.17,70.000000,,2013-06-25 23:01:00,
2013-06-25 19:11:00,80.0,71.0,29.88,South,186,0.0,4.0,74,0.00,,,0.17,60.000000,,2013-06-25 23:11:00,
2013-06-25 19:22:00,80.0,71.0,29.88,South,186,0.0,4.0,74,0.00,,,0.17,60.000000,,2013-06-25 23:22:00,
2013-06-25 19:34:00,79.0,70.0,29.88,NE,49,0.0,2.0,74,0.00,,,0.17,56.000000,,2013-06-25 23:34:00,
2013-06-25 19:44:00,79.0,70.0,29.88,NE,49,0.0,1.0,75,0.00,,,0.17,49.000000,,2013-06-25 23:44:00,
2013-06-25 19:52:00,79.0,70.0,29.88,NE,49,0.0,1.0,75,0.00,,,0.17,49.000000,,2013-06-25 23:52:00,
2013-06-25 20:02:00,78.0,70.0,29.88,NE,49,0.0,0.0,77,0.00,,,0.17,28.000000,,2013-06-26 00:02:00,
2013-06-25 20:11:00,78.0,70.0,29.88,NE,49,0.0,0.0,77,0.00,,,0.17,28.000000,,2013-06-26 00:11:00,
2013-06-25 20:22:00,78.0,70.0,29.88,NE,54,0.0,2.0,77,0.00,,,0.17,14.000000,,2013-06-26 00:22:00,
2013-06-25 20:33:00,77.0,70.0,29.88,ESE,102,0.0,1.0,78,0.00,,,0.00,7.000000,,2013-06-26 00:33:00,
2013-06-25 23:22:00,75.0,68.0,29.91,ESE,109,0.0,0.0,78,0.00,,,0.00,0.000000,,2013-06-26 03:22:00,
2013-06-25 23:33:00,75.0,68.0,29.90,ESE,108,0.0,1.0,79,0.00,,,0.00,0.000000,,2013-06-26 03:33:00,
2013-06-25 23:43:00,75.0,68.0,29.90,ESE,107,0.0,0.0,79,0.00,,,0.00,0.000000,,2013-06-26 03:43:00,
2013-06-25 23:52:00,75.0,68.0,29.90,ESE,107,0.0,0.0,79,0.00,,,0.00,0.000000,,2013-06-26 03:52:00,